createdAt,value
2022-08-23T00:00:45.760Z,52.77
2022-08-23T00:01:54.367Z,52.92
2022-08-23T00:02:57.155Z,52.68
2022-08-23T00:04:04.677Z,52.79
2022-08-23T00:05:08.995Z,53.05
2022-08-23T00:06:12.169Z,52.94
2022-08-23T00:07:15.817Z,53.32
2022-08-23T00:08:30.948Z,53.11
2022-08-23T00:09:34.406Z,52.82
2022-08-23T00:10:36.473Z,52.82
2022-08-23T00:12:15.794Z,53.70
2022-08-23T00:13:17.971Z,52.95
2022-08-23T00:14:25.140Z,53.47
2022-08-23T00:15:27.766Z,53.78
2022-08-23T00:16:30.039Z,54.07
2022-08-23T00:17:34.181Z,54.05
2022-08-23T00:18:37.254Z,53.87
2022-08-23T00:19:40.326Z,54.00
2022-08-23T00:20:43.084Z,54.35
2022-08-23T00:21:46.983Z,54.16
2022-08-23T00:22:49.164Z,54.12
2022-08-23T00:23:51.365Z,54.30
2022-08-23T00:24:53.657Z,54.29
2022-08-23T00:25:55.788Z,54.04
2022-08-23T00:27:05.208Z,54.82
2022-08-23T00:28:14.965Z,54.45
2022-08-23T00:29:17.571Z,54.42
2022-08-23T00:30:19.718Z,54.79
2022-08-23T00:31:22.197Z,54.76
2022-08-23T00:33:28.177Z,54.92
2022-08-23T00:34:30.676Z,54.85
2022-08-23T00:35:33.688Z,55.06
2022-08-23T00:36:36.335Z,55.30
2022-08-23T00:37:39.309Z,55.55
2022-08-23T00:38:42.289Z,55.96
2022-08-23T00:39:45.311Z,56.38
2022-08-23T00:40:51.364Z,55.77
2022-08-23T00:41:59.241Z,55.60
2022-08-23T00:43:26.887Z,55.76
2022-08-23T00:45:12.495Z,55.76
2022-08-23T00:46:49.847Z,56.11
2022-08-23T00:47:52.188Z,56.27
2022-08-23T00:48:55.851Z,56.34
2022-08-23T00:50:23.640Z,56.54
2022-08-23T00:51:52.287Z,56.63
2022-08-23T00:53:12.484Z,56.73
2022-08-23T00:54:17.301Z,57.04
2022-08-23T00:55:21.504Z,57.19
2022-08-23T00:56:26.321Z,57.17
2022-08-23T00:57:34.319Z,56.94
2022-08-23T00:58:36.588Z,56.82
2022-08-23T00:59:39.566Z,56.87
2022-08-23T01:00:42.202Z,56.93
2022-08-23T01:01:44.423Z,56.84
2022-08-23T01:02:51.250Z,57.07
2022-08-23T01:04:04.318Z,57.45
2022-08-23T01:05:08.368Z,57.90
2022-08-23T01:06:34.388Z,58.13
2022-08-23T01:07:53.397Z,57.88
2022-08-23T01:09:02.455Z,57.83
2022-08-23T01:10:20.020Z,57.72
2022-08-23T01:11:41.281Z,58.05
2022-08-23T01:12:51.079Z,58.58
2022-08-23T01:13:58.699Z,57.95
2022-08-23T01:15:15.866Z,57.97
2022-08-23T01:16:34.252Z,58.76
2022-08-23T01:17:46.520Z,58.66
2022-08-23T01:18:49.797Z,58.80
2022-08-23T01:19:59.623Z,59.13
2022-08-23T01:21:13.816Z,59.81
2022-08-23T01:22:47.995Z,59.19
2022-08-23T01:23:55.836Z,58.95
2022-08-23T01:25:07.439Z,58.93
2022-08-23T01:26:21.724Z,59.02
2022-08-23T01:27:25.267Z,59.06
2022-08-23T01:28:27.703Z,59.50
2022-08-23T01:29:30.012Z,59.45
2022-08-23T01:30:34.620Z,59.66
2022-08-23T01:31:37.943Z,59.60
2022-08-23T01:32:46.028Z,59.83
2022-08-23T01:33:56.621Z,59.78
2022-08-23T01:34:59.148Z,59.77
2022-08-23T01:36:02.441Z,59.90
2022-08-23T01:37:10.222Z,60.00
2022-08-23T01:38:13.766Z,60.09
2022-08-23T01:39:16.994Z,60.03
2022-08-23T01:40:19.388Z,60.21
2022-08-23T01:41:24.178Z,60.14
2022-08-23T01:42:26.465Z,60.06
2022-08-23T01:43:29.115Z,60.22
2022-08-23T01:44:31.845Z,60.54
2022-08-23T01:45:35.136Z,60.36
2022-08-23T01:46:38.146Z,60.78
2022-08-23T01:47:42.957Z,60.63
2022-08-23T01:48:47.097Z,60.08
2022-08-23T01:49:50.293Z,59.91
2022-08-23T01:50:52.504Z,60.22
2022-08-23T01:51:56.314Z,60.08
2022-08-23T01:52:59.990Z,60.07
2022-08-23T01:54:04.813Z,60.00
2022-08-23T01:55:07.890Z,59.96
2022-08-23T01:56:15.472Z,59.79
2022-08-23T01:57:17.966Z,59.84
2022-08-23T01:58:20.912Z,59.83
2022-08-23T01:59:24.421Z,59.93
2022-08-23T02:00:33.252Z,59.88
2022-08-23T02:01:35.661Z,60.08
2022-08-23T02:02:38.830Z,59.99
2022-08-23T02:03:42.142Z,60.22
2022-08-23T02:04:44.403Z,60.11
2022-08-23T02:05:47.001Z,60.41
2022-08-23T02:06:49.821Z,60.24
2022-08-23T02:07:57.437Z,60.33
2022-08-23T02:09:04.808Z,60.20
2022-08-23T02:10:11.485Z,60.44
2022-08-23T02:11:17.828Z,60.38
2022-08-23T02:12:22.442Z,60.53
2022-08-23T02:13:27.978Z,60.63
2022-08-23T02:14:33.293Z,60.86
2022-08-23T02:15:36.907Z,60.52
2022-08-23T02:16:58.046Z,60.81
2022-08-23T02:18:07.457Z,60.88
2022-08-23T02:19:12.559Z,61.03
2022-08-23T02:20:15.367Z,60.91
2022-08-23T02:21:19.467Z,60.69
2022-08-23T02:22:22.745Z,60.66
2022-08-23T02:23:25.185Z,60.93
2022-08-23T02:24:27.956Z,61.04
2022-08-23T02:25:31.341Z,61.16
2022-08-23T02:26:38.532Z,60.90
2022-08-23T02:27:43.914Z,60.72
2022-08-23T02:28:51.943Z,60.97
2022-08-23T02:29:59.602Z,60.95
2022-08-23T02:31:05.889Z,60.92
2022-08-23T02:32:13.065Z,60.66
2022-08-23T02:33:16.443Z,60.93
2022-08-23T02:34:20.785Z,60.84
2022-08-23T02:35:24.651Z,60.64
2022-08-23T02:36:28.340Z,60.49
2022-08-23T02:37:31.728Z,60.85
2022-08-23T02:38:36.235Z,60.91
2022-08-23T02:39:39.722Z,60.56
2022-08-23T02:40:42.984Z,61.12
2022-08-23T02:41:50.361Z,60.74
2022-08-23T02:42:53.775Z,60.73
2022-08-23T02:43:57.370Z,60.63
2022-08-23T02:44:59.762Z,60.55
2022-08-23T02:46:03.460Z,60.62
2022-08-23T02:47:07.957Z,60.71
2022-08-23T02:48:12.061Z,60.87
2022-08-23T02:49:26.661Z,60.60
2022-08-23T02:50:28.863Z,60.74
2022-08-23T02:51:31.223Z,60.71
2022-08-23T02:52:34.303Z,60.88
2022-08-23T02:53:37.369Z,61.23
2022-08-23T02:54:42.813Z,60.75
2022-08-23T02:55:47.036Z,60.39
2022-08-23T02:56:49.543Z,60.57
2022-08-23T02:57:52.039Z,60.19
2022-08-23T02:58:54.970Z,60.34
2022-08-23T02:59:58.729Z,60.47
2022-08-23T03:01:01.488Z,60.27
2022-08-23T03:02:08.824Z,60.08
2022-08-23T03:03:15.225Z,60.37
2022-08-23T03:04:17.889Z,60.22
2022-08-23T03:05:20.361Z,60.46
2022-08-23T03:06:25.783Z,60.13
2022-08-23T03:07:28.657Z,60.05
2022-08-23T03:08:33.821Z,60.25
2022-08-23T03:09:36.836Z,60.28
2022-08-23T03:10:43.933Z,60.05
2022-08-23T03:11:48.650Z,59.56
2022-08-23T03:12:51.960Z,59.76
2022-08-23T03:13:56.723Z,59.56
2022-08-23T03:15:00.077Z,59.69
2022-08-23T03:16:02.889Z,59.65
2022-08-23T03:17:07.388Z,59.45
2022-08-23T03:18:13.244Z,59.60
2022-08-23T03:19:15.887Z,59.94
2022-08-23T03:20:18.543Z,59.57
2022-08-23T03:21:22.880Z,59.49
2022-08-23T03:22:25.658Z,59.73
2022-08-23T03:23:29.578Z,59.18
2022-08-23T03:24:31.955Z,59.45
2022-08-23T03:25:36.529Z,59.43
2022-08-23T03:27:02.935Z,59.33
2022-08-23T03:28:07.223Z,59.29
2022-08-23T03:29:14.181Z,59.46
2022-08-23T03:30:37.288Z,59.27
2022-08-23T03:31:41.741Z,59.36
2022-08-23T03:32:48.874Z,59.04
2022-08-23T03:33:52.941Z,58.93
2022-08-23T03:34:55.745Z,58.93
2022-08-23T03:36:00.930Z,58.75
2022-08-23T03:37:07.766Z,58.64
2022-08-23T03:38:12.208Z,58.51
2022-08-23T03:39:16.123Z,58.51
2022-08-23T03:40:21.270Z,58.29
2022-08-23T03:41:25.997Z,58.30
2022-08-23T03:42:30.930Z,58.40
2022-08-23T03:43:34.127Z,58.11
2022-08-23T03:44:38.657Z,58.17
2022-08-23T03:45:41.765Z,58.21
2022-08-23T03:46:46.975Z,57.96
2022-08-23T03:47:50.868Z,57.96
2022-08-23T03:49:02.195Z,57.76
2022-08-23T03:50:15.049Z,57.81
2022-08-23T03:51:21.169Z,57.81
2022-08-23T03:52:36.573Z,57.66
2022-08-23T03:53:39.166Z,57.40
2022-08-23T03:54:46.823Z,57.56
2022-08-23T03:55:57.299Z,57.21
2022-08-23T03:57:05.805Z,57.47
2022-08-23T03:59:31.737Z,57.39
2022-08-23T04:00:36.094Z,57.60
2022-08-23T04:01:42.304Z,57.43
2022-08-23T04:08:00.048Z,56.98
2022-08-23T04:09:12.191Z,56.62
2022-08-23T04:10:16.306Z,56.56
2022-08-23T04:11:22.886Z,56.38
2022-08-23T04:12:32.892Z,56.19
2022-08-23T04:13:43.367Z,56.09
2022-08-23T04:16:22.082Z,55.30
2022-08-23T04:17:37.467Z,54.91
2022-08-23T04:18:41.144Z,55.04
2022-08-23T04:20:10.211Z,54.60
2022-08-23T04:21:25.288Z,54.46
2022-08-23T04:22:27.673Z,54.35
2022-08-23T04:23:35.793Z,54.40
2022-08-23T04:24:56.277Z,54.07
2022-08-23T04:25:59.191Z,53.26
2022-08-23T04:27:07.409Z,52.61
2022-08-23T04:28:11.462Z,52.19
2022-08-23T04:29:24.847Z,52.26
2022-08-23T04:30:39.407Z,52.04
2022-08-23T04:31:44.132Z,51.11
2022-08-23T04:32:51.689Z,50.88
2022-08-23T04:33:56.687Z,50.45
2022-08-23T04:34:59.989Z,50.56
2022-08-23T04:36:04.898Z,51.36
2022-08-23T04:37:09.363Z,51.25
2022-08-23T04:38:24.677Z,50.76
2022-08-23T04:39:32.809Z,51.22
2022-08-23T04:40:56.783Z,51.55
2022-08-23T04:42:18.000Z,51.91
2022-08-23T04:43:22.102Z,52.21
2022-08-23T04:44:26.291Z,52.45
2022-08-23T04:45:30.302Z,52.84
2022-08-23T04:46:32.846Z,52.63
2022-08-23T04:47:39.473Z,52.30
2022-08-23T04:48:46.305Z,52.17
2022-08-23T04:49:50.487Z,52.44
2022-08-23T04:50:53.679Z,52.46
2022-08-23T04:53:39.137Z,51.84
2022-08-23T04:55:01.688Z,51.43
2022-08-23T04:56:25.540Z,50.82
2022-08-23T04:57:30.878Z,50.13
2022-08-23T04:59:54.356Z,48.69
2022-08-23T05:01:01.187Z,47.90
2022-08-23T05:02:05.991Z,47.81
2022-08-23T05:03:10.519Z,47.66
2022-08-23T05:04:19.765Z,47.25
2022-08-23T05:05:29.669Z,47.00
2022-08-23T05:06:32.960Z,46.62
2022-08-23T05:07:42.670Z,45.90
2022-08-23T05:08:46.824Z,46.18
2022-08-23T05:09:49.790Z,46.59
2022-08-23T05:10:54.216Z,46.73
2022-08-23T05:11:56.745Z,45.72
2022-08-23T05:13:00.555Z,45.44
2022-08-23T05:14:02.939Z,45.24
2022-08-23T05:15:07.967Z,45.08
2022-08-23T05:16:10.929Z,44.34
2022-08-23T05:17:19.249Z,44.67
2022-08-23T05:18:22.999Z,43.94
2022-08-23T05:19:27.438Z,43.33
2022-08-23T05:20:30.235Z,43.43
2022-08-23T05:21:32.496Z,43.38
2022-08-23T05:22:41.295Z,42.28
2022-08-23T05:24:18.304Z,42.14
2022-08-23T05:25:23.037Z,42.09
2022-08-23T05:26:28.323Z,41.58
2022-08-23T05:27:30.854Z,41.46
2022-08-23T05:28:35.047Z,41.75
2022-08-23T05:29:38.670Z,40.86
2022-08-23T05:30:41.103Z,40.20
2022-08-23T05:31:50.137Z,40.45
2022-08-23T05:32:53.618Z,39.69
2022-08-23T05:33:57.570Z,39.13
2022-08-23T05:35:07.655Z,38.72
2022-08-23T05:36:17.211Z,37.93
2022-08-23T05:37:19.645Z,37.58
2022-08-23T05:38:24.571Z,37.73
2022-08-23T05:39:36.130Z,37.78
2022-08-23T05:40:42.608Z,37.02
2022-08-23T05:41:48.249Z,37.16
2022-08-23T05:42:51.217Z,37.60
2022-08-23T05:44:14.799Z,37.65
2022-08-23T05:45:21.886Z,38.56
2022-08-23T05:46:28.453Z,38.45
2022-08-23T05:48:04.690Z,39.02
2022-08-23T05:49:28.532Z,39.03
2022-08-23T05:50:37.660Z,39.61
2022-08-23T05:51:39.879Z,38.85
2022-08-23T05:54:07.582Z,37.71
2022-08-23T05:55:09.781Z,37.15
2022-08-23T05:56:42.756Z,36.84
2022-08-23T05:57:50.011Z,36.87
2022-08-23T05:58:59.127Z,35.89
2022-08-23T06:00:03.144Z,35.99
2022-08-23T06:01:06.941Z,36.04
2022-08-23T06:02:10.126Z,35.39
2022-08-23T06:03:12.258Z,36.30
2022-08-23T06:04:16.242Z,37.17
2022-08-23T06:05:26.571Z,36.83
2022-08-23T06:07:00.961Z,37.18
2022-08-23T06:08:41.699Z,37.55
2022-08-23T06:09:49.192Z,37.22
2022-08-23T06:11:08.944Z,37.88
2022-08-23T06:12:16.608Z,36.59
2022-08-23T06:13:19.724Z,37.40
2022-08-23T06:14:21.980Z,37.77
2022-08-23T06:15:24.735Z,38.95
2022-08-23T06:16:36.991Z,38.47
2022-08-23T06:17:39.750Z,38.46
2022-08-23T06:18:42.887Z,37.61
2022-08-23T06:20:03.947Z,37.40
2022-08-23T06:21:16.845Z,37.15
2022-08-23T06:22:25.044Z,37.40
2022-08-23T06:23:29.433Z,37.94
2022-08-23T06:24:31.861Z,38.06
2022-08-23T06:25:41.129Z,39.07
2022-08-23T06:26:49.266Z,39.74
2022-08-23T06:27:52.748Z,39.56
2022-08-23T06:28:57.242Z,39.20
2022-08-23T06:30:02.402Z,39.66
2022-08-23T06:31:05.737Z,39.38
2022-08-23T06:32:11.169Z,38.77
2022-08-23T06:33:21.009Z,38.47
2022-08-23T06:34:46.631Z,37.70
2022-08-23T06:36:18.946Z,37.74
2022-08-23T06:37:50.465Z,37.44
2022-08-23T06:39:12.709Z,37.58
2022-08-23T06:40:35.511Z,35.81
2022-08-23T06:42:05.450Z,36.33
2022-08-23T06:43:18.801Z,35.85
2022-08-23T06:44:30.466Z,35.54
2022-08-23T06:45:55.131Z,35.58
2022-08-23T06:47:01.275Z,34.75
2022-08-23T06:48:41.786Z,34.70
2022-08-23T06:49:50.921Z,33.79
2022-08-23T06:51:26.734Z,34.78
2022-08-23T06:52:48.822Z,34.96
2022-08-23T06:54:02.916Z,34.61
2022-08-23T06:55:28.075Z,35.21
2022-08-23T06:56:51.649Z,35.44
2022-08-23T06:57:57.751Z,35.65
2022-08-23T06:59:17.662Z,35.58
2022-08-23T07:00:57.498Z,34.72
2022-08-23T07:02:09.981Z,35.58
2022-08-23T07:03:32.363Z,36.41
2022-08-23T07:04:57.214Z,35.72
2022-08-23T07:06:27.360Z,34.97
2022-08-23T07:07:37.586Z,35.57
2022-08-23T07:08:44.474Z,35.61
2022-08-23T07:09:54.849Z,35.29
2022-08-23T07:10:57.689Z,34.69
2022-08-23T07:12:01.786Z,34.50
2022-08-23T07:13:05.550Z,34.09
2022-08-23T07:14:11.408Z,34.36
2022-08-23T07:15:13.992Z,34.94
2022-08-23T07:16:26.102Z,34.85
2022-08-23T07:17:28.361Z,33.59
2022-08-23T07:18:33.350Z,33.49
2022-08-23T07:19:36.286Z,32.94
2022-08-23T07:20:39.061Z,32.88
2022-08-23T07:21:42.014Z,32.67
2022-08-23T07:22:44.734Z,32.34
2022-08-23T07:23:47.611Z,32.82
2022-08-23T07:24:50.276Z,32.92
2022-08-23T07:25:53.556Z,32.45
2022-08-23T07:26:59.109Z,33.70
2022-08-23T07:28:02.390Z,33.40
2022-08-23T07:29:06.605Z,33.10
2022-08-23T07:30:09.367Z,33.12
2022-08-23T07:31:27.572Z,32.95
2022-08-23T07:32:29.863Z,32.95
2022-08-23T07:33:53.830Z,32.50
2022-08-23T07:34:57.435Z,32.34
2022-08-23T07:36:00.322Z,32.30
2022-08-23T07:37:04.461Z,32.35
2022-08-23T07:38:16.088Z,31.61
2022-08-23T07:39:21.016Z,31.76
2022-08-23T07:40:23.305Z,32.06
2022-08-23T07:41:36.091Z,32.25
2022-08-23T07:42:40.367Z,30.46
2022-08-23T07:43:43.056Z,30.26
2022-08-23T07:44:46.223Z,31.52
2022-08-23T07:45:49.407Z,32.22
2022-08-23T07:46:55.462Z,31.72
2022-08-23T07:47:57.825Z,31.86
2022-08-23T07:49:01.922Z,32.20
2022-08-23T07:50:13.095Z,31.56
2022-08-23T07:51:15.684Z,31.57
2022-08-23T07:52:18.691Z,30.90
2022-08-23T07:53:37.447Z,30.72
2022-08-23T07:54:41.562Z,30.71
2022-08-23T07:56:05.488Z,30.56
2022-08-23T07:57:27.586Z,31.04
2022-08-23T07:58:48.676Z,30.74
2022-08-23T08:00:09.451Z,31.43
2022-08-23T08:01:34.624Z,31.74
2022-08-23T08:02:36.885Z,31.83
2022-08-23T08:03:40.320Z,32.32
2022-08-23T08:04:49.734Z,32.08
2022-08-23T08:05:52.374Z,31.99
2022-08-23T08:07:16.973Z,31.81
2022-08-23T08:08:19.362Z,31.98
2022-08-23T08:09:22.711Z,30.62
2022-08-23T08:10:25.617Z,30.68
2022-08-23T08:11:34.467Z,30.00
2022-08-23T08:12:38.320Z,29.07
2022-08-23T08:13:52.196Z,28.27
2022-08-23T08:14:55.447Z,28.44
2022-08-23T08:16:05.515Z,27.42
2022-08-23T08:17:09.797Z,26.54
2022-08-23T08:18:40.000Z,26.63
2022-08-23T08:20:21.968Z,26.14
2022-08-23T08:21:42.498Z,25.88
2022-08-23T08:23:04.088Z,25.36
2022-08-23T08:24:26.378Z,25.52
2022-08-23T08:25:34.464Z,25.23
2022-08-23T08:26:41.687Z,25.78
2022-08-23T08:27:43.971Z,25.07
2022-08-23T08:28:46.127Z,24.97
2022-08-23T08:29:48.196Z,25.00
2022-08-23T08:30:50.224Z,24.80
2022-08-23T08:31:54.281Z,24.70
2022-08-23T08:32:57.006Z,24.12
2022-08-23T08:33:59.362Z,24.54
2022-08-23T08:35:03.724Z,24.13
2022-08-23T08:36:07.528Z,24.37
2022-08-23T08:37:09.991Z,24.94
2022-08-23T08:38:11.996Z,24.24
2022-08-23T08:39:22.044Z,23.95
2022-08-23T08:40:31.659Z,24.28
2022-08-23T08:42:18.277Z,24.14
2022-08-23T08:43:42.425Z,24.03
2022-08-23T08:44:59.033Z,24.50
2022-08-23T08:46:22.056Z,24.94
2022-08-23T08:47:54.744Z,24.64
2022-08-23T08:49:02.158Z,25.15
2022-08-23T08:50:33.764Z,25.34
2022-08-23T08:51:48.938Z,25.26
2022-08-23T08:52:54.269Z,25.24
2022-08-23T08:54:17.623Z,24.68
2022-08-23T08:55:39.046Z,25.86
2022-08-23T08:56:43.007Z,25.56
2022-08-23T08:57:55.443Z,25.87
2022-08-23T08:59:02.782Z,25.45
2022-08-23T09:00:10.756Z,25.59
2022-08-23T09:01:20.222Z,26.60
2022-08-23T09:02:32.628Z,27.37
2022-08-23T09:03:40.652Z,27.18
2022-08-23T09:04:46.372Z,27.07
2022-08-23T09:06:04.490Z,27.16
2022-08-23T09:07:31.280Z,27.78
2022-08-23T09:08:50.962Z,27.31
2022-08-23T09:10:03.781Z,26.92
2022-08-23T09:11:20.817Z,27.67
2022-08-23T09:12:38.028Z,27.78
2022-08-23T09:13:46.248Z,27.55
2022-08-23T09:15:15.735Z,27.74
2022-08-23T09:16:50.750Z,29.24
2022-08-23T09:17:57.286Z,29.63
2022-08-23T09:19:02.498Z,30.44
2022-08-23T09:20:06.575Z,30.33
2022-08-23T09:21:10.305Z,30.61
2022-08-23T09:22:17.487Z,31.11
2022-08-23T09:23:29.786Z,31.18
2022-08-23T09:24:32.793Z,30.84
2022-08-23T09:25:57.889Z,31.60
2022-08-23T09:27:09.657Z,32.12
2022-08-23T09:28:14.463Z,32.45
2022-08-23T09:29:25.448Z,32.40
2022-08-23T09:30:55.102Z,32.30
2022-08-23T09:32:06.420Z,32.18
2022-08-23T09:33:21.581Z,32.22
2022-08-23T09:34:36.007Z,32.67
2022-08-23T09:36:02.258Z,33.01
2022-08-23T09:37:23.128Z,32.63
2022-08-23T09:38:27.178Z,32.83
2022-08-23T09:39:37.602Z,32.81
2022-08-23T09:40:51.591Z,32.97
2022-08-23T09:41:54.096Z,32.82
2022-08-23T09:43:13.498Z,32.80
2022-08-23T09:44:36.686Z,33.17
2022-08-23T09:45:55.761Z,32.43
2022-08-23T09:47:07.719Z,32.71
2022-08-23T09:48:14.815Z,32.94
2022-08-23T09:49:30.668Z,32.53
2022-08-23T09:50:51.023Z,32.92
2022-08-23T09:51:56.056Z,32.48
2022-08-23T09:53:05.196Z,32.11
2022-08-23T09:54:19.247Z,32.52
2022-08-23T09:55:32.681Z,32.07
2022-08-23T09:56:41.360Z,31.53
2022-08-23T09:57:48.636Z,31.83
2022-08-23T09:58:54.647Z,31.23
2022-08-23T10:00:29.122Z,31.29
2022-08-23T10:01:39.304Z,31.25
2022-08-23T10:02:47.393Z,31.03
2022-08-23T10:04:14.676Z,30.92
2022-08-23T10:05:30.155Z,30.65
2022-08-23T10:06:34.396Z,30.80
2022-08-23T10:07:52.207Z,30.99
2022-08-23T10:08:58.549Z,30.97
2022-08-23T10:10:24.816Z,31.16
2022-08-23T10:11:33.472Z,30.66
2022-08-23T10:12:36.602Z,30.39
2022-08-23T10:13:42.149Z,30.49
2022-08-23T10:14:45.144Z,30.87
2022-08-23T10:16:23.646Z,30.14
2022-08-23T10:17:59.761Z,30.25
2022-08-23T10:19:18.307Z,30.46
2022-08-23T10:20:28.211Z,30.22
2022-08-23T10:21:52.247Z,30.63
2022-08-23T10:23:09.418Z,30.60
2022-08-23T10:24:45.182Z,30.69
2022-08-23T10:26:01.584Z,30.32
2022-08-23T10:27:30.457Z,30.41
2022-08-23T10:29:13.260Z,30.15
2022-08-23T10:30:26.895Z,29.85
2022-08-23T10:31:41.448Z,30.01
2022-08-23T10:33:14.350Z,30.30
2022-08-23T10:34:24.248Z,30.33
2022-08-23T10:35:39.223Z,30.24
2022-08-23T10:37:05.942Z,30.48
2022-08-23T10:38:28.816Z,30.96
2022-08-23T10:39:33.841Z,30.95
2022-08-23T10:41:04.515Z,30.77
2022-08-23T10:42:31.870Z,30.59
2022-08-23T10:43:40.516Z,30.49
2022-08-23T10:44:59.246Z,30.26
2022-08-23T10:46:03.066Z,30.23
2022-08-23T10:47:38.053Z,30.02
2022-08-23T10:48:57.154Z,30.41
2022-08-23T10:50:08.281Z,29.63
2022-08-23T10:51:23.029Z,30.08
2022-08-23T10:52:40.702Z,29.98
2022-08-23T10:53:57.092Z,30.29
2022-08-23T10:55:17.432Z,29.91
2022-08-23T10:56:22.025Z,29.59
2022-08-23T10:57:40.508Z,29.13
2022-08-23T10:58:54.545Z,29.55
2022-08-23T10:59:59.330Z,29.93
2022-08-23T11:01:03.291Z,29.65
2022-08-23T11:02:33.422Z,29.68
2022-08-23T11:04:01.636Z,29.28
2022-08-23T11:05:33.841Z,29.20
2022-08-23T11:06:49.776Z,29.03
2022-08-23T11:08:05.275Z,28.69
2022-08-23T11:09:30.446Z,28.72
2022-08-23T11:10:53.746Z,28.95
2022-08-23T11:12:22.091Z,28.57
2022-08-23T11:13:28.933Z,28.42
2022-08-23T11:14:30.951Z,28.45
2022-08-23T11:16:01.216Z,28.36
2022-08-23T11:17:11.033Z,28.60
2022-08-23T11:18:34.319Z,28.56
2022-08-23T11:19:52.744Z,29.09
2022-08-23T11:21:07.842Z,28.71
2022-08-23T11:22:26.290Z,28.68
2022-08-23T11:23:41.865Z,28.90
2022-08-23T11:25:04.283Z,28.62
2022-08-23T11:26:22.877Z,28.63
2022-08-23T11:27:31.894Z,28.37
2022-08-23T11:28:44.605Z,28.13
2022-08-23T11:29:47.366Z,28.52
2022-08-23T11:31:35.139Z,28.04
2022-08-23T11:32:42.854Z,28.12
2022-08-23T11:33:53.850Z,28.07
2022-08-23T11:35:09.112Z,27.91
2022-08-23T11:36:22.013Z,28.03
2022-08-23T11:37:28.743Z,28.10
2022-08-23T11:39:01.793Z,28.25
2022-08-23T11:40:08.762Z,28.00
2022-08-23T11:41:37.238Z,28.27
2022-08-23T11:42:39.315Z,28.35
2022-08-23T11:43:46.448Z,28.04
2022-08-23T11:44:49.930Z,28.18
2022-08-23T11:45:53.763Z,27.91
2022-08-23T11:47:03.474Z,28.05
2022-08-23T11:48:37.402Z,27.97
2022-08-23T11:50:03.002Z,28.03
2022-08-23T11:51:18.741Z,27.47
2022-08-23T11:52:32.953Z,27.39
2022-08-23T11:54:07.535Z,27.37
2022-08-23T11:55:12.394Z,27.97
2022-08-23T11:56:35.544Z,27.88
2022-08-23T11:58:26.782Z,27.87
2022-08-23T11:59:55.087Z,28.05
2022-08-23T12:01:08.200Z,27.87
2022-08-23T12:02:38.225Z,27.94
2022-08-23T12:04:00.232Z,28.12
2022-08-23T12:05:20.467Z,27.97
2022-08-23T12:06:42.749Z,27.77
2022-08-23T12:08:01.240Z,27.93
2022-08-23T12:09:13.779Z,28.00
2022-08-23T12:10:37.292Z,27.93
2022-08-23T12:12:02.443Z,27.88
2022-08-23T12:13:28.138Z,27.73
2022-08-23T12:14:32.987Z,27.65
2022-08-23T12:16:06.258Z,27.66
2022-08-23T12:17:19.225Z,27.54
2022-08-23T12:18:24.996Z,27.36
2022-08-23T12:19:49.474Z,27.53
2022-08-23T12:20:59.323Z,27.33
2022-08-23T12:22:19.003Z,27.04
2022-08-23T12:23:21.762Z,27.56
2022-08-23T12:24:40.214Z,27.47
2022-08-23T12:25:43.022Z,27.29
2022-08-23T12:26:59.294Z,27.56
2022-08-23T12:28:12.006Z,27.63
2022-08-23T12:29:26.583Z,27.23
2022-08-23T12:30:50.591Z,27.44
2022-08-23T12:32:31.351Z,27.42
2022-08-23T12:33:33.589Z,27.63
2022-08-23T12:34:45.291Z,27.63
2022-08-23T12:36:15.466Z,27.44
2022-08-23T12:38:00.619Z,27.48
2022-08-23T12:39:20.065Z,27.33
2022-08-23T12:40:30.248Z,27.64
2022-08-23T12:41:55.966Z,27.43
2022-08-23T12:43:22.255Z,27.42
2022-08-23T12:44:29.699Z,27.40
2022-08-23T12:45:40.082Z,27.43
2022-08-23T12:46:45.142Z,27.28
2022-08-23T12:47:58.459Z,27.19
2022-08-23T12:49:02.061Z,26.95
2022-08-23T12:50:26.093Z,27.33
2022-08-23T12:51:48.975Z,27.13
2022-08-23T12:53:03.418Z,27.22
2022-08-23T12:54:17.480Z,27.51
2022-08-23T12:55:20.631Z,27.57
2022-08-23T12:56:28.166Z,27.52
2022-08-23T12:57:37.708Z,27.25
2022-08-23T12:58:46.053Z,27.65
2022-08-23T13:00:18.763Z,27.31
2022-08-23T13:01:35.814Z,27.61
2022-08-23T13:02:39.570Z,27.30
2022-08-23T13:03:47.504Z,27.26
2022-08-23T13:04:51.195Z,27.34
2022-08-23T13:05:53.222Z,27.53
2022-08-23T13:07:04.624Z,27.54
2022-08-23T13:08:11.703Z,27.63
2022-08-23T13:09:17.221Z,27.70
2022-08-23T13:10:19.598Z,27.88
2022-08-23T13:11:25.999Z,27.51
2022-08-23T13:12:28.495Z,27.67
2022-08-23T13:13:31.432Z,27.94
2022-08-23T13:14:44.830Z,27.77
2022-08-23T13:15:51.915Z,28.01
2022-08-23T13:16:55.690Z,27.98
2022-08-23T13:18:02.595Z,28.28
2022-08-23T13:19:32.255Z,27.56
2022-08-23T13:20:34.623Z,27.49
2022-08-23T13:21:39.963Z,27.54
2022-08-23T13:23:00.508Z,27.63
2022-08-23T13:24:37.829Z,27.81
2022-08-23T13:25:43.038Z,27.89
2022-08-23T13:26:47.287Z,27.98
2022-08-23T13:27:49.395Z,27.62
2022-08-23T13:29:22.988Z,27.65
2022-08-23T13:30:30.083Z,27.63
2022-08-23T13:32:04.095Z,27.76
2022-08-23T13:33:10.610Z,27.88
2022-08-23T13:34:34.719Z,28.09
2022-08-23T13:35:40.695Z,27.67
2022-08-23T13:36:44.672Z,28.00
2022-08-23T13:37:47.468Z,28.01
2022-08-23T13:38:50.231Z,28.23
2022-08-23T13:39:59.404Z,27.75
2022-08-23T13:41:01.519Z,28.09
2022-08-23T13:42:04.175Z,28.00
2022-08-23T13:43:10.068Z,28.06
2022-08-23T13:44:16.957Z,27.78
2022-08-23T13:45:20.929Z,28.05
2022-08-23T13:46:28.852Z,27.64
2022-08-23T13:47:31.488Z,27.96
2022-08-23T13:48:52.399Z,27.91
2022-08-23T13:49:56.056Z,27.91
2022-08-23T13:51:39.851Z,27.85
2022-08-23T13:53:03.131Z,27.85
2022-08-23T13:54:10.651Z,27.80
2022-08-23T13:55:12.545Z,28.09
2022-08-23T13:56:15.745Z,27.76
2022-08-23T13:57:21.743Z,27.90
2022-08-23T13:58:30.668Z,27.77
2022-08-23T13:59:36.493Z,27.62
2022-08-23T14:00:38.874Z,27.80
2022-08-23T14:01:48.078Z,27.50
2022-08-23T14:02:50.977Z,27.66
2022-08-23T14:03:53.264Z,27.99
2022-08-23T14:04:55.664Z,28.03
2022-08-23T14:05:58.201Z,27.81
2022-08-23T14:07:00.748Z,27.87
2022-08-23T14:08:02.982Z,27.79
2022-08-23T14:09:06.777Z,27.47
2022-08-23T14:10:09.603Z,28.01
2022-08-23T14:11:16.028Z,28.40
2022-08-23T14:12:22.037Z,28.08
2022-08-23T14:13:28.189Z,27.97
2022-08-23T14:14:33.248Z,27.82
2022-08-23T14:17:02.101Z,28.07
2022-08-23T14:18:04.827Z,27.84
2022-08-23T14:19:19.172Z,27.66
2022-08-23T14:20:43.138Z,27.52
2022-08-23T14:21:47.005Z,27.60
2022-08-23T14:22:49.389Z,27.60
2022-08-23T14:23:51.823Z,27.27
2022-08-23T14:24:53.928Z,27.53
2022-08-23T14:25:58.315Z,27.56
2022-08-23T14:27:02.137Z,27.54
2022-08-23T14:28:04.452Z,27.70
2022-08-23T14:29:06.636Z,27.19
2022-08-23T14:30:31.301Z,27.59
2022-08-23T14:31:33.589Z,27.91
2022-08-23T14:32:35.808Z,27.63
2022-08-23T14:33:39.943Z,27.06
2022-08-23T14:34:42.219Z,27.53
2022-08-23T14:35:45.135Z,27.54
2022-08-23T14:38:15.445Z,27.33
2022-08-23T14:39:18.027Z,27.35
2022-08-23T14:40:20.728Z,27.33
2022-08-23T14:41:26.994Z,27.38
2022-08-23T14:42:29.170Z,27.53
2022-08-23T14:43:32.259Z,27.46
2022-08-23T14:44:36.277Z,27.31
2022-08-23T14:45:39.021Z,27.63
2022-08-23T14:46:41.269Z,27.20
2022-08-23T14:47:45.989Z,27.61
2022-08-23T14:48:48.778Z,27.62
2022-08-23T14:49:53.914Z,27.34
2022-08-23T14:50:56.949Z,27.45
2022-08-23T14:52:02.805Z,27.51
2022-08-23T14:53:06.773Z,27.53
2022-08-23T14:54:15.295Z,27.50
2022-08-23T14:55:17.464Z,27.46
2022-08-23T14:56:21.759Z,27.47
2022-08-23T14:57:24.228Z,27.64
2022-08-23T14:58:26.402Z,27.47
2022-08-23T14:59:28.812Z,27.53
2022-08-23T15:00:33.181Z,27.36
2022-08-23T15:01:37.142Z,27.92
2022-08-23T15:02:42.185Z,27.60
2022-08-23T15:03:45.426Z,28.14
2022-08-23T15:04:48.144Z,27.82
2022-08-23T15:05:50.512Z,27.97
2022-08-23T15:07:16.780Z,28.02
2022-08-23T15:08:15.919Z,27.99
2022-08-23T15:09:18.353Z,27.88
2022-08-23T15:13:21.657Z,28.14
2022-08-23T15:14:28.236Z,28.22
2022-08-23T15:15:30.820Z,28.55
2022-08-23T15:16:33.801Z,28.27
2022-08-23T15:17:38.673Z,28.46
2022-08-23T15:18:48.165Z,28.45
2022-08-23T15:19:50.284Z,28.42
2022-08-23T15:20:52.684Z,28.51
2022-08-23T15:21:54.866Z,28.54
2022-08-23T15:22:57.463Z,28.59
2022-08-23T15:23:59.909Z,28.58